sensor_id;sensor_type;location;lat;lon;timestamp;P1;durP1;ratioP1;P2;durP2;ratioP2
13291;SDS011;6714;53.056;8.690;2024-02-04T00:01:34;6.20;;;2.37;;
13291;SDS011;6714;53.056;8.690;2024-02-04T00:04:18;5.93;;;2.40;;
13291;SDS011;6714;53.056;8.690;2024-02-04T00:07:00;6.63;;;2.60;;
13291;SDS011;6714;53.056;8.690;2024-02-04T00:09:42;5.60;;;2.77;;
13291;SDS011;6714;53.056;8.690;2024-02-04T00:12:25;8.53;;;3.17;;
13291;SDS011;6714;53.056;8.690;2024-02-04T00:15:08;9.17;;;3.20;;
13291;SDS011;6714;53.056;8.690;2024-02-04T00:17:50;7.67;;;3.10;;
13291;SDS011;6714;53.056;8.690;2024-02-04T00:20:34;7.70;;;3.17;;
13291;SDS011;6714;53.056;8.690;2024-02-04T00:23:16;6.40;;;3.03;;
13291;SDS011;6714;53.056;8.690;2024-02-04T00:25:58;11.30;;;4.03;;
13291;SDS011;6714;53.056;8.690;2024-02-04T00:28:40;6.47;;;3.27;;
13291;SDS011;6714;53.056;8.690;2024-02-04T00:31:23;8.00;;;3.20;;
13291;SDS011;6714;53.056;8.690;2024-02-04T00:34:05;8.93;;;3.80;;
13291;SDS011;6714;53.056;8.690;2024-02-04T00:36:49;6.83;;;3.60;;
13291;SDS011;6714;53.056;8.690;2024-02-04T00:39:31;6.90;;;3.57;;
13291;SDS011;6714;53.056;8.690;2024-02-04T00:42:13;6.57;;;4.33;;
13291;SDS011;6714;53.056;8.690;2024-02-04T00:44:56;8.03;;;3.73;;
13291;SDS011;6714;53.056;8.690;2024-02-04T00:47:38;9.87;;;5.10;;
13291;SDS011;6714;53.056;8.690;2024-02-04T00:50:20;8.97;;;4.30;;
13291;SDS011;6714;53.056;8.690;2024-02-04T00:53:04;11.40;;;4.50;;
13291;SDS011;6714;53.056;8.690;2024-02-04T00:55:46;8.83;;;4.07;;
13291;SDS011;6714;53.056;8.690;2024-02-04T00:58:28;8.23;;;4.27;;
13291;SDS011;6714;53.056;8.690;2024-02-04T01:01:11;9.50;;;4.90;;
13291;SDS011;6714;53.056;8.690;2024-02-04T01:03:53;9.77;;;5.23;;
13291;SDS011;6714;53.056;8.690;2024-02-04T01:06:36;8.20;;;4.50;;
13291;SDS011;6714;53.056;8.690;2024-02-04T01:09:19;9.00;;;4.17;;
13291;SDS011;6714;53.056;8.690;2024-02-04T01:12:02;11.57;;;5.17;;
13291;SDS011;6714;53.056;8.690;2024-02-04T01:14:45;10.03;;;5.20;;
13291;SDS011;6714;53.056;8.690;2024-02-04T01:17:27;8.67;;;4.40;;
13291;SDS011;6714;53.056;8.690;2024-02-04T01:20:09;7.73;;;4.70;;
13291;SDS011;6714;53.056;8.690;2024-02-04T01:22:52;10.30;;;5.03;;
13291;SDS011;6714;53.056;8.690;2024-02-04T01:25:35;7.97;;;4.73;;
13291;SDS011;6714;53.056;8.690;2024-02-04T01:28:18;9.03;;;5.03;;
13291;SDS011;6714;53.056;8.690;2024-02-04T01:31:00;8.23;;;4.37;;
13291;SDS011;6714;53.056;8.690;2024-02-04T01:33:42;9.30;;;4.37;;
13291;SDS011;6714;53.056;8.690;2024-02-04T01:36:25;7.57;;;4.37;;
13291;SDS011;6714;53.056;8.690;2024-02-04T01:39:07;14.60;;;6.37;;
13291;SDS011;6714;53.056;8.690;2024-02-04T01:41:51;7.57;;;4.83;;
13291;SDS011;6714;53.056;8.690;2024-02-04T01:44:34;10.27;;;6.63;;
13291;SDS011;6714;53.056;8.690;2024-02-04T01:47:16;7.13;;;4.23;;
13291;SDS011;6714;53.056;8.690;2024-02-04T01:49:58;8.00;;;4.77;;
13291;SDS011;6714;53.056;8.690;2024-02-04T01:52:41;12.83;;;6.03;;
13291;SDS011;6714;53.056;8.690;2024-02-04T01:55:24;10.07;;;5.57;;
13291;SDS011;6714;53.056;8.690;2024-02-04T01:58:07;10.77;;;6.90;;
13291;SDS011;6714;53.056;8.690;2024-02-04T02:00:50;8.40;;;5.90;;
13291;SDS011;6714;53.056;8.690;2024-02-04T02:03:33;19.40;;;7.93;;
13291;SDS011;6714;53.056;8.690;2024-02-04T02:06:16;8.83;;;4.63;;
13291;SDS011;6714;53.056;8.690;2024-02-04T02:08:59;8.10;;;4.40;;
13291;SDS011;6714;53.056;8.690;2024-02-04T02:11:45;9.50;;;5.70;;
13291;SDS011;6714;53.056;8.690;2024-02-04T02:14:30;9.03;;;5.40;;
13291;SDS011;6714;53.056;8.690;2024-02-04T02:17:14;15.90;;;7.57;;
13291;SDS011;6714;53.056;8.690;2024-02-04T02:19:59;7.80;;;4.40;;
13291;SDS011;6714;53.056;8.690;2024-02-04T02:22:45;7.40;;;4.80;;
13291;SDS011;6714;53.056;8.690;2024-02-04T02:25:31;9.17;;;5.40;;
13291;SDS011;6714;53.056;8.690;2024-02-04T02:28:13;7.67;;;4.53;;
13291;SDS011;6714;53.056;8.690;2024-02-04T02:30:55;8.60;;;5.93;;
13291;SDS011;6714;53.056;8.690;2024-02-04T02:33:44;10.93;;;5.60;;
13291;SDS011;6714;53.056;8.690;2024-02-04T02:36:26;11.93;;;6.70;;
13291;SDS011;6714;53.056;8.690;2024-02-04T02:39:13;7.07;;;4.17;;
13291;SDS011;6714;53.056;8.690;2024-02-04T02:41:59;11.13;;;5.57;;
13291;SDS011;6714;53.056;8.690;2024-02-04T02:44:41;7.93;;;4.90;;
13291;SDS011;6714;53.056;8.690;2024-02-04T02:47:25;11.77;;;5.37;;
13291;SDS011;6714;53.056;8.690;2024-02-04T02:50:08;5.07;;;3.50;;
13291;SDS011;6714;53.056;8.690;2024-02-04T02:52:51;10.47;;;5.43;;
13291;SDS011;6714;53.056;8.690;2024-02-04T02:55:33;11.90;;;5.43;;
13291;SDS011;6714;53.056;8.690;2024-02-04T02:58:17;8.67;;;4.80;;
13291;SDS011;6714;53.056;8.690;2024-02-04T03:00:59;7.47;;;4.10;;
13291;SDS011;6714;53.056;8.690;2024-02-04T03:03:41;7.07;;;4.33;;
13291;SDS011;6714;53.056;8.690;2024-02-04T03:06:24;13.37;;;5.13;;
13291;SDS011;6714;53.056;8.690;2024-02-04T03:09:07;12.13;;;5.57;;
13291;SDS011;6714;53.056;8.690;2024-02-04T03:11:50;9.87;;;5.37;;
13291;SDS011;6714;53.056;8.690;2024-02-04T03:14:34;12.43;;;5.33;;
13291;SDS011;6714;53.056;8.690;2024-02-04T03:17:16;8.13;;;4.87;;
13291;SDS011;6714;53.056;8.690;2024-02-04T03:20:00;7.63;;;4.23;;
13291;SDS011;6714;53.056;8.690;2024-02-04T03:22:43;8.80;;;3.87;;
13291;SDS011;6714;53.056;8.690;2024-02-04T03:25:27;7.80;;;3.93;;
13291;SDS011;6714;53.056;8.690;2024-02-04T03:28:09;12.67;;;4.27;;
13291;SDS011;6714;53.056;8.690;2024-02-04T03:30:53;7.03;;;3.30;;
13291;SDS011;6714;53.056;8.690;2024-02-04T03:33:35;4.77;;;3.37;;
13291;SDS011;6714;53.056;8.690;2024-02-04T03:36:18;6.20;;;3.20;;
13291;SDS011;6714;53.056;8.690;2024-02-04T03:39:02;10.83;;;3.97;;
13291;SDS011;6714;53.056;8.690;2024-02-04T03:41:44;11.07;;;3.73;;
13291;SDS011;6714;53.056;8.690;2024-02-04T03:44:27;7.77;;;3.83;;
13291;SDS011;6714;53.056;8.690;2024-02-04T03:47:10;10.40;;;3.87;;
13291;SDS011;6714;53.056;8.690;2024-02-04T03:49:52;6.87;;;2.87;;
13291;SDS011;6714;53.056;8.690;2024-02-04T03:52:35;6.30;;;3.60;;
13291;SDS011;6714;53.056;8.690;2024-02-04T03:55:17;6.93;;;3.67;;
13291;SDS011;6714;53.056;8.690;2024-02-04T03:57:59;5.57;;;3.10;;
13291;SDS011;6714;53.056;8.690;2024-02-04T04:00:42;8.83;;;3.77;;
13291;SDS011;6714;53.056;8.690;2024-02-04T04:03:25;6.07;;;2.80;;
13291;SDS011;6714;53.056;8.690;2024-02-04T04:06:08;6.73;;;3.17;;
13291;SDS011;6714;53.056;8.690;2024-02-04T04:08:50;6.77;;;3.20;;
13291;SDS011;6714;53.056;8.690;2024-02-04T04:11:33;9.93;;;3.50;;
13291;SDS011;6714;53.056;8.690;2024-02-04T04:14:15;7.90;;;2.90;;
13291;SDS011;6714;53.056;8.690;2024-02-04T04:16:57;6.73;;;3.63;;
13291;SDS011;6714;53.056;8.690;2024-02-04T04:19:41;12.93;;;4.37;;
13291;SDS011;6714;53.056;8.690;2024-02-04T04:22:23;7.60;;;3.30;;
13291;SDS011;6714;53.056;8.690;2024-02-04T04:25:05;6.70;;;2.97;;
13291;SDS011;6714;53.056;8.690;2024-02-04T04:27:47;11.37;;;3.20;;
13291;SDS011;6714;53.056;8.690;2024-02-04T04:30:30;8.43;;;3.70;;
13291;SDS011;6714;53.056;8.690;2024-02-04T04:33:12;6.80;;;3.43;;
13291;SDS011;6714;53.056;8.690;2024-02-04T04:35:56;8.97;;;3.17;;
13291;SDS011;6714;53.056;8.690;2024-02-04T04:38:38;6.40;;;2.53;;
13291;SDS011;6714;53.056;8.690;2024-02-04T04:41:20;4.90;;;2.43;;
13291;SDS011;6714;53.056;8.690;2024-02-04T04:44:02;6.77;;;2.53;;
13291;SDS011;6714;53.056;8.690;2024-02-04T04:46:45;6.17;;;3.07;;
13291;SDS011;6714;53.056;8.690;2024-02-04T04:49:27;8.27;;;2.70;;
13291;SDS011;6714;53.056;8.690;2024-02-04T04:52:11;9.60;;;2.80;;
13291;SDS011;6714;53.056;8.690;2024-02-04T04:54:54;8.00;;;2.37;;
13291;SDS011;6714;53.056;8.690;2024-02-04T04:57:36;5.60;;;2.57;;
13291;SDS011;6714;53.056;8.690;2024-02-04T05:00:19;6.03;;;2.67;;
13291;SDS011;6714;53.056;8.690;2024-02-04T05:03:01;3.27;;;2.20;;
13291;SDS011;6714;53.056;8.690;2024-02-04T05:05:44;4.53;;;1.90;;
13291;SDS011;6714;53.056;8.690;2024-02-04T05:08:28;8.07;;;2.67;;
13291;SDS011;6714;53.056;8.690;2024-02-04T05:11:10;5.37;;;1.83;;
13291;SDS011;6714;53.056;8.690;2024-02-04T05:13:52;8.20;;;2.63;;
13291;SDS011;6714;53.056;8.690;2024-02-04T05:16:34;5.77;;;2.10;;
13291;SDS011;6714;53.056;8.690;2024-02-04T05:19:17;4.60;;;1.87;;
13291;SDS011;6714;53.056;8.690;2024-02-04T05:21:59;4.47;;;2.17;;
13291;SDS011;6714;53.056;8.690;2024-02-04T05:24:43;6.23;;;2.10;;
13291;SDS011;6714;53.056;8.690;2024-02-04T05:27:25;5.90;;;2.23;;
13291;SDS011;6714;53.056;8.690;2024-02-04T05:30:07;6.17;;;2.50;;
13291;SDS011;6714;53.056;8.690;2024-02-04T05:32:50;4.30;;;2.03;;
13291;SDS011;6714;53.056;8.690;2024-02-04T05:35:32;7.00;;;2.27;;
13291;SDS011;6714;53.056;8.690;2024-02-04T05:38:16;4.73;;;2.10;;
13291;SDS011;6714;53.056;8.690;2024-02-04T05:41:00;10.63;;;2.63;;
13291;SDS011;6714;53.056;8.690;2024-02-04T05:43:42;9.60;;;2.43;;
13291;SDS011;6714;53.056;8.690;2024-02-04T05:46:25;5.23;;;2.30;;
13291;SDS011;6714;53.056;8.690;2024-02-04T05:49:08;5.47;;;2.20;;
13291;SDS011;6714;53.056;8.690;2024-02-04T05:51:51;6.13;;;2.13;;
13291;SDS011;6714;53.056;8.690;2024-02-04T05:54:36;4.90;;;2.13;;
13291;SDS011;6714;53.056;8.690;2024-02-04T05:57:20;8.50;;;2.30;;
13291;SDS011;6714;53.056;8.690;2024-02-04T06:00:03;5.30;;;2.00;;
13291;SDS011;6714;53.056;8.690;2024-02-04T06:02:46;7.07;;;2.70;;
13291;SDS011;6714;53.056;8.690;2024-02-04T06:05:28;6.50;;;2.43;;
13291;SDS011;6714;53.056;8.690;2024-02-04T06:08:10;3.30;;;2.00;;
13291;SDS011;6714;53.056;8.690;2024-02-04T06:10:53;7.40;;;2.20;;
13291;SDS011;6714;53.056;8.690;2024-02-04T06:13:36;4.60;;;2.00;;
13291;SDS011;6714;53.056;8.690;2024-02-04T06:16:18;6.17;;;2.23;;
13291;SDS011;6714;53.056;8.690;2024-02-04T06:19:01;7.70;;;2.40;;
13291;SDS011;6714;53.056;8.690;2024-02-04T06:21:43;4.77;;;2.00;;
13291;SDS011;6714;53.056;8.690;2024-02-04T06:24:25;5.60;;;2.17;;
13291;SDS011;6714;53.056;8.690;2024-02-04T06:27:07;8.40;;;2.57;;
13291;SDS011;6714;53.056;8.690;2024-02-04T06:29:51;5.87;;;2.77;;
13291;SDS011;6714;53.056;8.690;2024-02-04T06:32:33;10.30;;;3.03;;
13291;SDS011;6714;53.056;8.690;2024-02-04T06:35:16;6.07;;;2.47;;
13291;SDS011;6714;53.056;8.690;2024-02-04T06:37:58;5.07;;;2.23;;
13291;SDS011;6714;53.056;8.690;2024-02-04T06:40:40;10.03;;;3.30;;
13291;SDS011;6714;53.056;8.690;2024-02-04T06:43:23;4.17;;;2.50;;
13291;SDS011;6714;53.056;8.690;2024-02-04T06:46:06;11.87;;;3.83;;
13291;SDS011;6714;53.056;8.690;2024-02-04T06:48:48;7.27;;;2.83;;
13291;SDS011;6714;53.056;8.690;2024-02-04T06:51:31;7.13;;;2.17;;
13291;SDS011;6714;53.056;8.690;2024-02-04T06:54:13;9.97;;;3.80;;
13291;SDS011;6714;53.056;8.690;2024-02-04T06:56:55;5.30;;;2.30;;
13291;SDS011;6714;53.056;8.690;2024-02-04T06:59:38;8.20;;;2.97;;
13291;SDS011;6714;53.056;8.690;2024-02-04T07:02:21;6.70;;;3.17;;
13291;SDS011;6714;53.056;8.690;2024-02-04T07:05:04;7.70;;;3.90;;
13291;SDS011;6714;53.056;8.690;2024-02-04T07:07:46;9.40;;;4.00;;
13291;SDS011;6714;53.056;8.690;2024-02-04T07:10:28;7.37;;;2.97;;
13291;SDS011;6714;53.056;8.690;2024-02-04T07:13:11;5.43;;;2.50;;
13291;SDS011;6714;53.056;8.690;2024-02-04T07:15:53;7.13;;;3.00;;
13291;SDS011;6714;53.056;8.690;2024-02-04T07:18:37;8.43;;;3.27;;
13291;SDS011;6714;53.056;8.690;2024-02-04T07:21:19;9.73;;;4.10;;
13291;SDS011;6714;53.056;8.690;2024-02-04T07:24:01;9.43;;;3.83;;
13291;SDS011;6714;53.056;8.690;2024-02-04T07:26:44;8.83;;;4.07;;
13291;SDS011;6714;53.056;8.690;2024-02-04T07:29:26;6.40;;;2.97;;
13291;SDS011;6714;53.056;8.690;2024-02-04T07:32:08;9.03;;;3.87;;
13291;SDS011;6714;53.056;8.690;2024-02-04T07:34:52;10.50;;;3.93;;
13291;SDS011;6714;53.056;8.690;2024-02-04T07:37:34;7.97;;;3.47;;
13291;SDS011;6714;53.056;8.690;2024-02-04T07:40:16;6.67;;;3.07;;
13291;SDS011;6714;53.056;8.690;2024-02-04T07:42:59;8.53;;;3.47;;
13291;SDS011;6714;53.056;8.690;2024-02-04T07:45:41;9.93;;;3.80;;
13291;SDS011;6714;53.056;8.690;2024-02-04T07:48:23;4.50;;;2.40;;
13291;SDS011;6714;53.056;8.690;2024-02-04T07:51:07;7.07;;;3.60;;
13291;SDS011;6714;53.056;8.690;2024-02-04T07:53:50;8.77;;;3.63;;
13291;SDS011;6714;53.056;8.690;2024-02-04T07:56:32;6.83;;;2.97;;
13291;SDS011;6714;53.056;8.690;2024-02-04T07:59:14;10.63;;;3.73;;
13291;SDS011;6714;53.056;8.690;2024-02-04T08:01:56;8.47;;;3.10;;
13291;SDS011;6714;53.056;8.690;2024-02-04T08:04:39;7.33;;;3.33;;
13291;SDS011;6714;53.056;8.690;2024-02-04T08:07:23;6.27;;;2.93;;
13291;SDS011;6714;53.056;8.690;2024-02-04T08:10:06;8.53;;;3.10;;
13291;SDS011;6714;53.056;8.690;2024-02-04T08:12:48;10.27;;;3.50;;
13291;SDS011;6714;53.056;8.690;2024-02-04T08:15:32;8.60;;;3.00;;
13291;SDS011;6714;53.056;8.690;2024-02-04T08:18:13;10.13;;;2.80;;
13291;SDS011;6714;53.056;8.690;2024-02-04T08:20:55;8.47;;;2.97;;
13291;SDS011;6714;53.056;8.690;2024-02-04T08:23:40;9.27;;;2.57;;
13291;SDS011;6714;53.056;8.690;2024-02-04T08:26:22;9.03;;;3.07;;
13291;SDS011;6714;53.056;8.690;2024-02-04T08:29:04;5.80;;;2.77;;
13291;SDS011;6714;53.056;8.690;2024-02-04T08:31:47;8.23;;;2.50;;
13291;SDS011;6714;53.056;8.690;2024-02-04T08:34:29;6.30;;;2.40;;
13291;SDS011;6714;53.056;8.690;2024-02-04T08:37:11;8.67;;;3.10;;
13291;SDS011;6714;53.056;8.690;2024-02-04T08:39:55;5.27;;;2.23;;
13291;SDS011;6714;53.056;8.690;2024-02-04T08:42:37;7.93;;;2.40;;
13291;SDS011;6714;53.056;8.690;2024-02-04T08:45:20;8.23;;;2.60;;
13291;SDS011;6714;53.056;8.690;2024-02-04T08:48:02;6.27;;;2.13;;
13291;SDS011;6714;53.056;8.690;2024-02-04T08:50:44;9.80;;;2.23;;
13291;SDS011;6714;53.056;8.690;2024-02-04T08:53:27;4.90;;;2.07;;
13291;SDS011;6714;53.056;8.690;2024-02-04T08:56:10;5.93;;;2.27;;
13291;SDS011;6714;53.056;8.690;2024-02-04T08:58:53;7.23;;;2.50;;
13291;SDS011;6714;53.056;8.690;2024-02-04T09:01:35;6.77;;;2.30;;
13291;SDS011;6714;53.056;8.690;2024-02-04T09:04:18;12.13;;;2.33;;
13291;SDS011;6714;53.056;8.690;2024-02-04T09:07:00;8.87;;;2.37;;
13291;SDS011;6714;53.056;8.690;2024-02-04T09:09:43;6.03;;;2.00;;
13291;SDS011;6714;53.056;8.690;2024-02-04T09:12:26;5.13;;;2.20;;
13291;SDS011;6714;53.056;8.690;2024-02-04T09:15:09;4.27;;;2.20;;
13291;SDS011;6714;53.056;8.690;2024-02-04T09:17:51;4.73;;;2.50;;
13291;SDS011;6714;53.056;8.690;2024-02-04T09:20:34;5.07;;;2.23;;
13291;SDS011;6714;53.056;8.690;2024-02-04T09:23:16;7.27;;;2.43;;
13291;SDS011;6714;53.056;8.690;2024-02-04T09:25:58;8.57;;;2.30;;
13291;SDS011;6714;53.056;8.690;2024-02-04T09:28:42;7.17;;;2.37;;
13291;SDS011;6714;53.056;8.690;2024-02-04T09:31:24;8.23;;;2.27;;
13291;SDS011;6714;53.056;8.690;2024-02-04T09:34:08;7.00;;;2.30;;
13291;SDS011;6714;53.056;8.690;2024-02-04T09:36:50;9.90;;;2.87;;
13291;SDS011;6714;53.056;8.690;2024-02-04T09:39:33;7.77;;;2.30;;
13291;SDS011;6714;53.056;8.690;2024-02-04T09:42:18;6.50;;;2.70;;
13291;SDS011;6714;53.056;8.690;2024-02-04T09:45:02;10.20;;;2.80;;
13291;SDS011;6714;53.056;8.690;2024-02-04T09:47:45;7.73;;;2.30;;
13291;SDS011;6714;53.056;8.690;2024-02-04T09:50:27;8.40;;;2.20;;
13291;SDS011;6714;53.056;8.690;2024-02-04T09:53:09;6.73;;;2.50;;
13291;SDS011;6714;53.056;8.690;2024-02-04T09:55:53;8.80;;;2.37;;
13291;SDS011;6714;53.056;8.690;2024-02-04T09:58:37;7.63;;;2.30;;
13291;SDS011;6714;53.056;8.690;2024-02-04T10:01:20;7.17;;;2.53;;
13291;SDS011;6714;53.056;8.690;2024-02-04T10:04:03;7.07;;;2.20;;
13291;SDS011;6714;53.056;8.690;2024-02-04T10:06:45;5.73;;;2.27;;
13291;SDS011;6714;53.056;8.690;2024-02-04T10:09:27;9.23;;;2.30;;
13291;SDS011;6714;53.056;8.690;2024-02-04T10:12:10;7.50;;;2.40;;
13291;SDS011;6714;53.056;8.690;2024-02-04T10:14:52;7.90;;;2.47;;
13291;SDS011;6714;53.056;8.690;2024-02-04T10:17:36;7.73;;;2.70;;
13291;SDS011;6714;53.056;8.690;2024-02-04T10:20:18;9.93;;;2.87;;
13291;SDS011;6714;53.056;8.690;2024-02-04T10:23:01;6.40;;;2.20;;
13291;SDS011;6714;53.056;8.690;2024-02-04T10:25:43;12.77;;;2.70;;
13291;SDS011;6714;53.056;8.690;2024-02-04T10:28:26;9.63;;;2.80;;
13291;SDS011;6714;53.056;8.690;2024-02-04T10:31:08;7.70;;;2.50;;
13291;SDS011;6714;53.056;8.690;2024-02-04T10:33:52;6.17;;;2.40;;
13291;SDS011;6714;53.056;8.690;2024-02-04T10:36:34;9.57;;;2.73;;
13291;SDS011;6714;53.056;8.690;2024-02-04T10:39:16;5.60;;;1.93;;
13291;SDS011;6714;53.056;8.690;2024-02-04T10:42:00;7.53;;;2.73;;
13291;SDS011;6714;53.056;8.690;2024-02-04T10:44:44;8.37;;;2.73;;
13291;SDS011;6714;53.056;8.690;2024-02-04T10:47:29;7.47;;;2.80;;
13291;SDS011;6714;53.056;8.690;2024-02-04T10:50:14;6.80;;;2.73;;
13291;SDS011;6714;53.056;8.690;2024-02-04T10:52:57;9.03;;;2.50;;
13291;SDS011;6714;53.056;8.690;2024-02-04T10:55:41;7.77;;;2.70;;
13291;SDS011;6714;53.056;8.690;2024-02-04T10:58:23;9.03;;;2.60;;
13291;SDS011;6714;53.056;8.690;2024-02-04T11:01:06;7.30;;;2.40;;
13291;SDS011;6714;53.056;8.690;2024-02-04T11:03:49;8.00;;;2.80;;
13291;SDS011;6714;53.056;8.690;2024-02-04T11:06:33;11.33;;;2.97;;
13291;SDS011;6714;53.056;8.690;2024-02-04T11:09:15;8.43;;;2.73;;
13291;SDS011;6714;53.056;8.690;2024-02-04T11:11:59;8.20;;;2.57;;
13291;SDS011;6714;53.056;8.690;2024-02-04T11:14:41;10.37;;;3.10;;
13291;SDS011;6714;53.056;8.690;2024-02-04T11:20:40;6.20;;;2.40;;
13291;SDS011;6714;53.056;8.690;2024-02-04T11:23:31;5.20;;;2.57;;
13291;SDS011;6714;53.056;8.690;2024-02-04T11:26:16;7.40;;;2.80;;
13291;SDS011;6714;53.056;8.690;2024-02-04T11:28:59;6.50;;;2.40;;
13291;SDS011;6714;53.056;8.690;2024-02-04T11:31:42;9.00;;;2.40;;
13291;SDS011;6714;53.056;8.690;2024-02-04T11:34:24;9.83;;;2.50;;
13291;SDS011;6714;53.056;8.690;2024-02-04T11:37:14;8.63;;;2.47;;
13291;SDS011;6714;53.056;8.690;2024-02-04T11:39:58;7.43;;;2.20;;
13291;SDS011;6714;53.056;8.690;2024-02-04T11:42:40;10.67;;;2.60;;
13291;SDS011;6714;53.056;8.690;2024-02-04T11:45:23;6.03;;;2.67;;
13291;SDS011;6714;53.056;8.690;2024-02-04T11:48:08;5.80;;;2.33;;
13291;SDS011;6714;53.056;8.690;2024-02-04T11:50:52;8.40;;;2.60;;
13291;SDS011;6714;53.056;8.690;2024-02-04T11:53:34;6.97;;;2.60;;
13291;SDS011;6714;53.056;8.690;2024-02-04T11:56:19;7.63;;;2.80;;
13291;SDS011;6714;53.056;8.690;2024-02-04T11:59:01;5.63;;;2.13;;
13291;SDS011;6714;53.056;8.690;2024-02-04T12:01:44;4.33;;;2.47;;
13291;SDS011;6714;53.056;8.690;2024-02-04T12:04:27;5.93;;;2.20;;
13291;SDS011;6714;53.056;8.690;2024-02-04T12:07:09;7.50;;;2.20;;
13291;SDS011;6714;53.056;8.690;2024-02-04T12:09:52;4.83;;;2.20;;
13291;SDS011;6714;53.056;8.690;2024-02-04T12:12:36;6.63;;;2.20;;
13291;SDS011;6714;53.056;8.690;2024-02-04T12:15:18;4.93;;;2.43;;
13291;SDS011;6714;53.056;8.690;2024-02-04T12:18:07;4.70;;;2.03;;
13291;SDS011;6714;53.056;8.690;2024-02-04T12:20:49;4.70;;;2.13;;
13291;SDS011;6714;53.056;8.690;2024-02-04T12:23:31;4.77;;;2.37;;
13291;SDS011;6714;53.056;8.690;2024-02-04T12:26:14;8.73;;;2.10;;
13291;SDS011;6714;53.056;8.690;2024-02-04T12:28:58;5.20;;;1.80;;
13291;SDS011;6714;53.056;8.690;2024-02-04T12:31:40;5.83;;;2.40;;
13291;SDS011;6714;53.056;8.690;2024-02-04T12:34:22;5.20;;;2.60;;
13291;SDS011;6714;53.056;8.690;2024-02-04T12:37:05;4.63;;;2.00;;
13291;SDS011;6714;53.056;8.690;2024-02-04T12:39:47;7.03;;;2.40;;
13291;SDS011;6714;53.056;8.690;2024-02-04T12:42:29;6.43;;;2.40;;
13291;SDS011;6714;53.056;8.690;2024-02-04T12:45:15;5.53;;;2.13;;
13291;SDS011;6714;53.056;8.690;2024-02-04T12:47:58;5.13;;;2.10;;
13291;SDS011;6714;53.056;8.690;2024-02-04T12:50:40;4.33;;;2.10;;
13291;SDS011;6714;53.056;8.690;2024-02-04T12:53:23;5.77;;;2.33;;
13291;SDS011;6714;53.056;8.690;2024-02-04T12:56:05;7.13;;;2.33;;
13291;SDS011;6714;53.056;8.690;2024-02-04T12:58:47;6.60;;;2.47;;
13291;SDS011;6714;53.056;8.690;2024-02-04T13:01:31;3.80;;;2.10;;
13291;SDS011;6714;53.056;8.690;2024-02-04T13:04:13;5.57;;;2.17;;
13291;SDS011;6714;53.056;8.690;2024-02-04T13:06:56;2.80;;;1.90;;
13291;SDS011;6714;53.056;8.690;2024-02-04T13:09:38;7.63;;;2.50;;
13291;SDS011;6714;53.056;8.690;2024-02-04T13:12:20;4.67;;;1.83;;
13291;SDS011;6714;53.056;8.690;2024-02-04T13:15:03;3.87;;;2.10;;
13291;SDS011;6714;53.056;8.690;2024-02-04T13:17:47;6.40;;;2.37;;
13291;SDS011;6714;53.056;8.690;2024-02-04T13:20:29;4.23;;;2.00;;
13291;SDS011;6714;53.056;8.690;2024-02-04T13:23:11;5.03;;;2.10;;
13291;SDS011;6714;53.056;8.690;2024-02-04T13:25:53;5.83;;;2.07;;
13291;SDS011;6714;53.056;8.690;2024-02-04T13:28:36;5.37;;;1.87;;
13291;SDS011;6714;53.056;8.690;2024-02-04T13:31:19;6.20;;;1.90;;
13291;SDS011;6714;53.056;8.690;2024-02-04T13:34:03;4.60;;;1.90;;
13291;SDS011;6714;53.056;8.690;2024-02-04T13:36:45;3.70;;;2.00;;
13291;SDS011;6714;53.056;8.690;2024-02-04T13:39:27;5.10;;;1.93;;
13291;SDS011;6714;53.056;8.690;2024-02-04T13:42:09;5.93;;;2.07;;
13291;SDS011;6714;53.056;8.690;2024-02-04T13:44:52;4.20;;;1.87;;
13291;SDS011;6714;53.056;8.690;2024-02-04T13:47:34;3.67;;;1.80;;
13291;SDS011;6714;53.056;8.690;2024-02-04T13:50:18;4.00;;;1.50;;
13291;SDS011;6714;53.056;8.690;2024-02-04T13:53:00;4.13;;;1.63;;
13291;SDS011;6714;53.056;8.690;2024-02-04T13:55:43;4.47;;;1.83;;
13291;SDS011;6714;53.056;8.690;2024-02-04T13:58:25;3.67;;;1.70;;
13291;SDS011;6714;53.056;8.690;2024-02-04T14:01:07;5.40;;;2.23;;
13291;SDS011;6714;53.056;8.690;2024-02-04T14:03:50;4.60;;;1.90;;
13291;SDS011;6714;53.056;8.690;2024-02-04T14:06:33;4.67;;;2.07;;
13291;SDS011;6714;53.056;8.690;2024-02-04T14:09:17;4.13;;;1.90;;
13291;SDS011;6714;53.056;8.690;2024-02-04T14:11:59;4.60;;;2.03;;
13291;SDS011;6714;53.056;8.690;2024-02-04T14:14:41;3.90;;;1.83;;
13291;SDS011;6714;53.056;8.690;2024-02-04T14:17:24;7.80;;;2.23;;
13291;SDS011;6714;53.056;8.690;2024-02-04T14:20:06;5.07;;;1.87;;
13291;SDS011;6714;53.056;8.690;2024-02-04T14:22:50;4.37;;;2.00;;
13291;SDS011;6714;53.056;8.690;2024-02-04T14:25:33;6.10;;;2.00;;
13291;SDS011;6714;53.056;8.690;2024-02-04T14:28:15;4.37;;;1.70;;
13291;SDS011;6714;53.056;8.690;2024-02-04T14:30:57;7.47;;;1.80;;
13291;SDS011;6714;53.056;8.690;2024-02-04T14:33:40;7.23;;;2.13;;
13291;SDS011;6714;53.056;8.690;2024-02-04T14:36:22;5.30;;;2.07;;
13291;SDS011;6714;53.056;8.690;2024-02-04T14:39:06;5.77;;;2.00;;
13291;SDS011;6714;53.056;8.690;2024-02-04T14:41:48;4.00;;;1.70;;
13291;SDS011;6714;53.056;8.690;2024-02-04T14:44:31;5.93;;;2.27;;
13291;SDS011;6714;53.056;8.690;2024-02-04T14:47:13;4.23;;;2.00;;
13291;SDS011;6714;53.056;8.690;2024-02-04T14:49:55;2.93;;;1.87;;
13291;SDS011;6714;53.056;8.690;2024-02-04T14:52:37;4.03;;;1.83;;
13291;SDS011;6714;53.056;8.690;2024-02-04T14:55:21;4.43;;;1.80;;
13291;SDS011;6714;53.056;8.690;2024-02-04T14:58:03;5.47;;;2.30;;
13291;SDS011;6714;53.056;8.690;2024-02-04T15:00:45;3.90;;;1.67;;
13291;SDS011;6714;53.056;8.690;2024-02-04T15:03:28;6.70;;;2.40;;
13291;SDS011;6714;53.056;8.690;2024-02-04T15:06:10;3.03;;;1.80;;
13291;SDS011;6714;53.056;8.690;2024-02-04T15:08:52;3.23;;;1.70;;
13291;SDS011;6714;53.056;8.690;2024-02-04T15:11:36;5.67;;;2.23;;
13291;SDS011;6714;53.056;8.690;2024-02-04T15:14:19;5.33;;;1.83;;
13291;SDS011;6714;53.056;8.690;2024-02-04T15:17:01;3.57;;;1.70;;
13291;SDS011;6714;53.056;8.690;2024-02-04T15:19:45;5.50;;;2.40;;
13291;SDS011;6714;53.056;8.690;2024-02-04T15:22:27;3.50;;;1.77;;
13291;SDS011;6714;53.056;8.690;2024-02-04T15:25:10;4.10;;;1.70;;
13291;SDS011;6714;53.056;8.690;2024-02-04T15:27:56;5.33;;;2.23;;
13291;SDS011;6714;53.056;8.690;2024-02-04T15:30:38;3.53;;;1.83;;
13291;SDS011;6714;53.056;8.690;2024-02-04T15:33:21;4.40;;;2.13;;
13291;SDS011;6714;53.056;8.690;2024-02-04T15:36:04;4.00;;;1.97;;
13291;SDS011;6714;53.056;8.690;2024-02-04T15:38:46;2.40;;;2.00;;
13291;SDS011;6714;53.056;8.690;2024-02-04T15:41:29;2.70;;;1.80;;
13291;SDS011;6714;53.056;8.690;2024-02-04T15:44:13;4.30;;;1.93;;
13291;SDS011;6714;53.056;8.690;2024-02-04T15:46:56;3.43;;;1.60;;
13291;SDS011;6714;53.056;8.690;2024-02-04T15:49:38;4.23;;;1.90;;
13291;SDS011;6714;53.056;8.690;2024-02-04T15:52:21;4.73;;;1.80;;
13291;SDS011;6714;53.056;8.690;2024-02-04T15:55:04;5.47;;;2.00;;
13291;SDS011;6714;53.056;8.690;2024-02-04T15:57:48;6.50;;;1.90;;
13291;SDS011;6714;53.056;8.690;2024-02-04T16:00:32;3.43;;;1.80;;
13291;SDS011;6714;53.056;8.690;2024-02-04T16:03:15;1.93;;;1.70;;
13291;SDS011;6714;53.056;8.690;2024-02-04T16:06:00;6.07;;;2.13;;
13291;SDS011;6714;53.056;8.690;2024-02-04T16:08:45;3.50;;;1.77;;
13291;SDS011;6714;53.056;8.690;2024-02-04T16:11:30;3.23;;;1.60;;
13291;SDS011;6714;53.056;8.690;2024-02-04T16:14:18;3.47;;;1.80;;
13291;SDS011;6714;53.056;8.690;2024-02-04T16:17:03;4.23;;;1.63;;
13291;SDS011;6714;53.056;8.690;2024-02-04T16:19:48;5.73;;;1.90;;
13291;SDS011;6714;53.056;8.690;2024-02-04T16:22:32;2.80;;;1.73;;
13291;SDS011;6714;53.056;8.690;2024-02-04T16:25:14;3.73;;;1.90;;
13291;SDS011;6714;53.056;8.690;2024-02-04T16:27:57;5.50;;;2.37;;
13291;SDS011;6714;53.056;8.690;2024-02-04T16:30:40;3.03;;;1.60;;
13291;SDS011;6714;53.056;8.690;2024-02-04T16:33:24;5.47;;;2.17;;
13291;SDS011;6714;53.056;8.690;2024-02-04T16:36:08;5.47;;;2.30;;
13291;SDS011;6714;53.056;8.690;2024-02-04T16:38:50;3.27;;;1.93;;